sensor_id;sensor_type;location;lat;lon;timestamp;P1;durP1;ratioP1;P2;durP2;ratioP2
1799;SDS011;919;48.274;12.292;2023-07-13T00:00:25;5.30;;;3.50;;
1799;SDS011;919;48.274;12.292;2023-07-13T00:02:52;3.73;;;3.43;;
1799;SDS011;919;48.274;12.292;2023-07-13T00:05:20;4.33;;;3.37;;
1799;SDS011;919;48.274;12.292;2023-07-13T00:07:47;3.70;;;3.33;;
1799;SDS011;919;48.274;12.292;2023-07-13T00:10:14;3.70;;;3.40;;
1799;SDS011;919;48.274;12.292;2023-07-13T00:12:41;5.10;;;3.03;;
1799;SDS011;919;48.274;12.292;2023-07-13T00:15:12;5.43;;;2.93;;
1799;SDS011;919;48.274;12.292;2023-07-13T00:17:42;3.53;;;3.23;;
1799;SDS011;919;48.274;12.292;2023-07-13T00:20:10;3.30;;;2.93;;
1799;SDS011;919;48.274;12.292;2023-07-13T00:22:37;3.63;;;3.33;;
1799;SDS011;919;48.274;12.292;2023-07-13T00:25:04;3.70;;;3.40;;
1799;SDS011;919;48.274;12.292;2023-07-13T00:27:32;3.03;;;2.80;;
1799;SDS011;919;48.274;12.292;2023-07-13T00:29:58;3.60;;;3.13;;
1799;SDS011;919;48.274;12.292;2023-07-13T00:32:25;3.07;;;2.83;;
1799;SDS011;919;48.274;12.292;2023-07-13T00:34:55;3.90;;;2.90;;
1799;SDS011;919;48.274;12.292;2023-07-13T00:37:22;5.73;;;3.10;;
1799;SDS011;919;48.274;12.292;2023-07-13T00:39:49;3.27;;;3.07;;
1799;SDS011;919;48.274;12.292;2023-07-13T00:42:16;3.30;;;3.00;;
1799;SDS011;919;48.274;12.292;2023-07-13T00:47:28;3.07;;;2.77;;
1799;SDS011;919;48.274;12.292;2023-07-13T00:49:56;3.50;;;2.60;;
1799;SDS011;919;48.274;12.292;2023-07-13T00:52:23;3.20;;;2.80;;
1799;SDS011;919;48.274;12.292;2023-07-13T00:54:50;3.90;;;3.60;;
1799;SDS011;919;48.274;12.292;2023-07-13T00:57:17;4.40;;;3.20;;
1799;SDS011;919;48.274;12.292;2023-07-13T00:59:48;4.00;;;3.10;;
1799;SDS011;919;48.274;12.292;2023-07-13T01:02:17;3.30;;;3.00;;
1799;SDS011;919;48.274;12.292;2023-07-13T01:04:46;5.73;;;3.10;;
1799;SDS011;919;48.274;12.292;2023-07-13T01:07:15;5.63;;;2.77;;
1799;SDS011;919;48.274;12.292;2023-07-13T01:09:42;4.33;;;3.33;;
1799;SDS011;919;48.274;12.292;2023-07-13T01:12:10;5.30;;;3.50;;
1799;SDS011;919;48.274;12.292;2023-07-13T01:14:36;5.77;;;3.50;;
1799;SDS011;919;48.274;12.292;2023-07-13T01:17:04;5.03;;;3.30;;
1799;SDS011;919;48.274;12.292;2023-07-13T01:19:32;3.00;;;2.80;;
1799;SDS011;919;48.274;12.292;2023-07-13T01:22:03;3.73;;;3.37;;
1799;SDS011;919;48.274;12.292;2023-07-13T01:24:33;4.77;;;3.17;;
1799;SDS011;919;48.274;12.292;2023-07-13T01:27:01;3.50;;;3.20;;
1799;SDS011;919;48.274;12.292;2023-07-13T01:29:28;3.37;;;3.07;;
1799;SDS011;919;48.274;12.292;2023-07-13T01:31:56;3.87;;;2.97;;
1799;SDS011;919;48.274;12.292;2023-07-13T01:34:23;4.10;;;3.70;;
1799;SDS011;919;48.274;12.292;2023-07-13T01:36:49;5.50;;;3.53;;
1799;SDS011;919;48.274;12.292;2023-07-13T01:39:20;7.10;;;3.80;;
1799;SDS011;919;48.274;12.292;2023-07-13T01:41:47;3.30;;;3.00;;
1799;SDS011;919;48.274;12.292;2023-07-13T01:44:14;3.40;;;2.83;;
1799;SDS011;919;48.274;12.292;2023-07-13T01:46:40;4.10;;;3.33;;
1799;SDS011;919;48.274;12.292;2023-07-13T01:49:07;4.20;;;2.80;;
1799;SDS011;919;48.274;12.292;2023-07-13T01:51:34;3.67;;;3.10;;
1799;SDS011;919;48.274;12.292;2023-07-13T01:54:01;4.93;;;3.03;;
1799;SDS011;919;48.274;12.292;2023-07-13T01:56:29;2.70;;;2.50;;
1799;SDS011;919;48.274;12.292;2023-07-13T01:58:55;3.30;;;3.00;;
1799;SDS011;919;48.274;12.292;2023-07-13T02:01:22;3.20;;;3.00;;
1799;SDS011;919;48.274;12.292;2023-07-13T02:03:49;3.03;;;2.70;;
1799;SDS011;919;48.274;12.292;2023-07-13T02:06:16;3.20;;;2.90;;
1799;SDS011;919;48.274;12.292;2023-07-13T02:08:43;4.53;;;3.00;;
1799;SDS011;919;48.274;12.292;2023-07-13T02:11:10;2.87;;;2.67;;
1799;SDS011;919;48.274;12.292;2023-07-13T02:13:38;3.73;;;3.33;;
1799;SDS011;919;48.274;12.292;2023-07-13T02:16:05;4.40;;;2.90;;
1799;SDS011;919;48.274;12.292;2023-07-13T02:18:32;5.00;;;3.33;;
1799;SDS011;919;48.274;12.292;2023-07-13T02:20:59;3.00;;;2.80;;
1799;SDS011;919;48.274;12.292;2023-07-13T02:23:26;3.40;;;2.77;;
1799;SDS011;919;48.274;12.292;2023-07-13T02:25:54;4.90;;;3.00;;
1799;SDS011;919;48.274;12.292;2023-07-13T02:28:21;3.23;;;2.23;;
1799;SDS011;919;48.274;12.292;2023-07-13T02:30:49;3.00;;;2.43;;
1799;SDS011;919;48.274;12.292;2023-07-13T02:33:16;3.03;;;2.70;;
1799;SDS011;919;48.274;12.292;2023-07-13T02:35:43;3.13;;;2.90;;
1799;SDS011;919;48.274;12.292;2023-07-13T02:38:10;2.20;;;2.00;;
1799;SDS011;919;48.274;12.292;2023-07-13T02:40:36;3.70;;;3.40;;
1799;SDS011;919;48.274;12.292;2023-07-13T02:43:03;4.50;;;4.07;;
1799;SDS011;919;48.274;12.292;2023-07-13T02:45:30;3.93;;;2.80;;
1799;SDS011;919;48.274;12.292;2023-07-13T02:47:58;4.60;;;3.00;;
1799;SDS011;919;48.274;12.292;2023-07-13T02:50:25;3.43;;;3.10;;
1799;SDS011;919;48.274;12.292;2023-07-13T02:52:52;4.57;;;3.63;;
1799;SDS011;919;48.274;12.292;2023-07-13T02:55:18;3.33;;;3.13;;
1799;SDS011;919;48.274;12.292;2023-07-13T02:57:45;5.33;;;2.80;;
1799;SDS011;919;48.274;12.292;2023-07-13T03:00:12;3.30;;;3.00;;
1799;SDS011;919;48.274;12.292;2023-07-13T03:02:41;4.70;;;3.40;;
1799;SDS011;919;48.274;12.292;2023-07-13T03:05:09;3.50;;;3.20;;
1799;SDS011;919;48.274;12.292;2023-07-13T03:07:37;3.27;;;3.03;;
1799;SDS011;919;48.274;12.292;2023-07-13T03:10:05;4.37;;;3.97;;
1799;SDS011;919;48.274;12.292;2023-07-13T03:12:32;6.60;;;2.80;;
1799;SDS011;919;48.274;12.292;2023-07-13T03:14:59;3.00;;;2.70;;
1799;SDS011;919;48.274;12.292;2023-07-13T03:17:26;3.20;;;2.97;;
1799;SDS011;919;48.274;12.292;2023-07-13T03:19:52;3.47;;;2.83;;
1799;SDS011;919;48.274;12.292;2023-07-13T03:22:21;3.70;;;2.90;;
1799;SDS011;919;48.274;12.292;2023-07-13T03:24:48;4.67;;;3.17;;
1799;SDS011;919;48.274;12.292;2023-07-13T03:27:15;2.70;;;2.50;;
1799;SDS011;919;48.274;12.292;2023-07-13T03:29:43;3.17;;;2.90;;
1799;SDS011;919;48.274;12.292;2023-07-13T03:32:10;3.17;;;2.70;;
1799;SDS011;919;48.274;12.292;2023-07-13T03:34:36;2.53;;;2.33;;
1799;SDS011;919;48.274;12.292;2023-07-13T03:37:03;3.37;;;2.50;;
1799;SDS011;919;48.274;12.292;2023-07-13T03:39:32;5.53;;;2.93;;
1799;SDS011;919;48.274;12.292;2023-07-13T03:41:58;3.33;;;2.30;;
1799;SDS011;919;48.274;12.292;2023-07-13T03:44:25;4.60;;;3.10;;
1799;SDS011;919;48.274;12.292;2023-07-13T03:46:52;4.63;;;3.03;;
1799;SDS011;919;48.274;12.292;2023-07-13T03:49:19;3.93;;;3.53;;
1799;SDS011;919;48.274;12.292;2023-07-13T03:51:46;3.80;;;2.83;;
1799;SDS011;919;48.274;12.292;2023-07-13T03:54:13;4.57;;;2.67;;
1799;SDS011;919;48.274;12.292;2023-07-13T03:56:41;2.77;;;2.57;;
1799;SDS011;919;48.274;12.292;2023-07-13T03:59:08;2.20;;;2.00;;
1799;SDS011;919;48.274;12.292;2023-07-13T04:01:34;3.00;;;2.57;;
1799;SDS011;919;48.274;12.292;2023-07-13T04:04:01;2.60;;;2.40;;
1799;SDS011;919;48.274;12.292;2023-07-13T04:06:29;2.80;;;2.60;;
1799;SDS011;919;48.274;12.292;2023-07-13T04:08:57;5.43;;;2.70;;
1799;SDS011;919;48.274;12.292;2023-07-13T04:11:26;3.47;;;2.87;;
1799;SDS011;919;48.274;12.292;2023-07-13T04:13:55;2.70;;;2.50;;
1799;SDS011;919;48.274;12.292;2023-07-13T04:16:22;4.73;;;3.53;;
1799;SDS011;919;48.274;12.292;2023-07-13T04:18:50;3.40;;;3.17;;
1799;SDS011;919;48.274;12.292;2023-07-13T04:21:20;4.80;;;3.20;;
1799;SDS011;919;48.274;12.292;2023-07-13T04:23:47;4.00;;;3.20;;
1799;SDS011;919;48.274;12.292;2023-07-13T04:26:14;3.73;;;3.47;;
1799;SDS011;919;48.274;12.292;2023-07-13T04:28:41;4.40;;;3.73;;
1799;SDS011;919;48.274;12.292;2023-07-13T04:31:09;3.73;;;3.40;;
1799;SDS011;919;48.274;12.292;2023-07-13T04:33:36;3.33;;;3.03;;
1799;SDS011;919;48.274;12.292;2023-07-13T04:36:03;5.33;;;3.90;;
1799;SDS011;919;48.274;12.292;2023-07-13T04:38:31;3.83;;;3.53;;
1799;SDS011;919;48.274;12.292;2023-07-13T04:40:59;7.50;;;3.90;;
1799;SDS011;919;48.274;12.292;2023-07-13T04:43:27;4.60;;;4.20;;
1799;SDS011;919;48.274;12.292;2023-07-13T04:45:55;5.30;;;3.57;;
1799;SDS011;919;48.274;12.292;2023-07-13T04:48:24;4.97;;;4.23;;
1799;SDS011;919;48.274;12.292;2023-07-13T04:50:54;7.57;;;4.20;;
1799;SDS011;919;48.274;12.292;2023-07-13T04:53:22;5.00;;;4.20;;
1799;SDS011;919;48.274;12.292;2023-07-13T04:55:49;4.57;;;3.87;;
1799;SDS011;919;48.274;12.292;2023-07-13T04:58:16;5.30;;;4.60;;
1799;SDS011;919;48.274;12.292;2023-07-13T05:00:43;4.77;;;4.13;;
1799;SDS011;919;48.274;12.292;2023-07-13T05:03:09;4.90;;;4.50;;
1799;SDS011;919;48.274;12.292;2023-07-13T05:05:38;5.10;;;4.60;;
1799;SDS011;919;48.274;12.292;2023-07-13T05:08:05;5.23;;;4.00;;
1799;SDS011;919;48.274;12.292;2023-07-13T05:10:32;5.47;;;4.30;;
1799;SDS011;919;48.274;12.292;2023-07-13T05:12:59;3.73;;;3.43;;
1799;SDS011;919;48.274;12.292;2023-07-13T05:15:26;4.83;;;4.10;;
1799;SDS011;919;48.274;12.292;2023-07-13T05:17:53;4.80;;;3.97;;
1799;SDS011;919;48.274;12.292;2023-07-13T05:20:19;4.10;;;3.70;;
1799;SDS011;919;48.274;12.292;2023-07-13T05:22:47;4.67;;;4.20;;
1799;SDS011;919;48.274;12.292;2023-07-13T05:25:15;6.37;;;3.60;;
1799;SDS011;919;48.274;12.292;2023-07-13T05:27:42;4.63;;;3.87;;
1799;SDS011;919;48.274;12.292;2023-07-13T05:30:10;5.77;;;4.03;;
1799;SDS011;919;48.274;12.292;2023-07-13T05:32:37;4.30;;;3.90;;
1799;SDS011;919;48.274;12.292;2023-07-13T05:35:05;5.47;;;4.50;;
1799;SDS011;919;48.274;12.292;2023-07-13T05:37:32;5.87;;;4.37;;
1799;SDS011;919;48.274;12.292;2023-07-13T05:40:00;6.17;;;3.60;;
1799;SDS011;919;48.274;12.292;2023-07-13T05:42:27;6.70;;;3.80;;
1799;SDS011;919;48.274;12.292;2023-07-13T05:44:56;4.73;;;4.23;;
1799;SDS011;919;48.274;12.292;2023-07-13T05:47:23;4.07;;;3.73;;
1799;SDS011;919;48.274;12.292;2023-07-13T05:49:50;4.70;;;3.93;;
1799;SDS011;919;48.274;12.292;2023-07-13T05:52:17;4.60;;;4.20;;
1799;SDS011;919;48.274;12.292;2023-07-13T05:54:43;11.17;;;3.57;;
1799;SDS011;919;48.274;12.292;2023-07-13T05:57:11;4.00;;;3.60;;
1799;SDS011;919;48.274;12.292;2023-07-13T05:59:38;4.87;;;4.30;;
1799;SDS011;919;48.274;12.292;2023-07-13T06:02:05;4.10;;;3.70;;
1799;SDS011;919;48.274;12.292;2023-07-13T06:04:34;4.60;;;4.13;;
1799;SDS011;919;48.274;12.292;2023-07-13T06:07:01;4.90;;;4.40;;
1799;SDS011;919;48.274;12.292;2023-07-13T06:09:28;4.70;;;3.57;;
1799;SDS011;919;48.274;12.292;2023-07-13T06:11:54;4.50;;;4.10;;
1799;SDS011;919;48.274;12.292;2023-07-13T06:14:22;5.77;;;3.30;;
1799;SDS011;919;48.274;12.292;2023-07-13T06:16:49;4.03;;;3.63;;
1799;SDS011;919;48.274;12.292;2023-07-13T06:19:16;4.93;;;4.33;;
1799;SDS011;919;48.274;12.292;2023-07-13T06:21:42;8.43;;;3.80;;
1799;SDS011;919;48.274;12.292;2023-07-13T06:24:10;4.57;;;3.67;;
1799;SDS011;919;48.274;12.292;2023-07-13T06:26:37;4.63;;;3.97;;
1799;SDS011;919;48.274;12.292;2023-07-13T06:29:03;6.50;;;4.00;;
1799;SDS011;919;48.274;12.292;2023-07-13T06:31:32;4.50;;;4.10;;
1799;SDS011;919;48.274;12.292;2023-07-13T06:33:59;6.60;;;4.50;;
1799;SDS011;919;48.274;12.292;2023-07-13T06:36:25;4.33;;;3.97;;
1799;SDS011;919;48.274;12.292;2023-07-13T06:38:53;6.60;;;4.80;;
1799;SDS011;919;48.274;12.292;2023-07-13T06:41:20;3.83;;;3.40;;
1799;SDS011;919;48.274;12.292;2023-07-13T06:43:47;3.77;;;3.47;;
1799;SDS011;919;48.274;12.292;2023-07-13T06:46:13;3.97;;;3.67;;
1799;SDS011;919;48.274;12.292;2023-07-13T06:48:41;4.23;;;3.83;;
1799;SDS011;919;48.274;12.292;2023-07-13T06:51:08;5.33;;;4.30;;
1799;SDS011;919;48.274;12.292;2023-07-13T06:53:35;6.00;;;3.80;;
1799;SDS011;919;48.274;12.292;2023-07-13T06:56:02;3.97;;;3.20;;
1799;SDS011;919;48.274;12.292;2023-07-13T06:58:29;4.30;;;3.90;;
1799;SDS011;919;48.274;12.292;2023-07-13T07:00:56;5.37;;;3.77;;
1799;SDS011;919;48.274;12.292;2023-07-13T07:03:22;4.27;;;3.87;;
1799;SDS011;919;48.274;12.292;2023-07-13T07:05:51;4.50;;;4.10;;
1799;SDS011;919;48.274;12.292;2023-07-13T07:08:18;4.10;;;3.70;;
1799;SDS011;919;48.274;12.292;2023-07-13T07:10:45;4.53;;;3.53;;
1799;SDS011;919;48.274;12.292;2023-07-13T07:13:11;4.10;;;3.70;;
1799;SDS011;919;48.274;12.292;2023-07-13T07:15:38;5.93;;;3.50;;
1799;SDS011;919;48.274;12.292;2023-07-13T07:18:05;4.07;;;3.50;;
1799;SDS011;919;48.274;12.292;2023-07-13T07:20:32;4.50;;;4.03;;
1799;SDS011;919;48.274;12.292;2023-07-13T07:23:00;4.27;;;3.40;;
1799;SDS011;919;48.274;12.292;2023-07-13T07:25:27;3.57;;;3.27;;
1799;SDS011;919;48.274;12.292;2023-07-13T07:27:56;5.33;;;3.40;;
1799;SDS011;919;48.274;12.292;2023-07-13T07:30:23;6.57;;;3.70;;
1799;SDS011;919;48.274;12.292;2023-07-13T07:32:50;4.13;;;3.07;;
1799;SDS011;919;48.274;12.292;2023-07-13T07:35:17;4.67;;;3.23;;
1799;SDS011;919;48.274;12.292;2023-07-13T07:37:44;3.90;;;3.13;;
1799;SDS011;919;48.274;12.292;2023-07-13T07:40:12;3.93;;;3.17;;
1799;SDS011;919;48.274;12.292;2023-07-13T07:42:38;3.83;;;3.53;;
1799;SDS011;919;48.274;12.292;2023-07-13T07:45:05;4.57;;;4.13;;
1799;SDS011;919;48.274;12.292;2023-07-13T07:47:32;4.40;;;3.03;;
1799;SDS011;919;48.274;12.292;2023-07-13T07:49:59;3.40;;;3.20;;
1799;SDS011;919;48.274;12.292;2023-07-13T07:52:26;3.53;;;3.23;;
1799;SDS011;919;48.274;12.292;2023-07-13T07:54:53;3.80;;;3.50;;
1799;SDS011;919;48.274;12.292;2023-07-13T07:57:22;3.73;;;2.90;;
1799;SDS011;919;48.274;12.292;2023-07-13T07:59:49;3.83;;;3.53;;
1799;SDS011;919;48.274;12.292;2023-07-13T08:02:15;4.20;;;2.90;;
1799;SDS011;919;48.274;12.292;2023-07-13T08:04:42;4.73;;;3.40;;
1799;SDS011;919;48.274;12.292;2023-07-13T08:07:09;3.07;;;2.80;;
1799;SDS011;919;48.274;12.292;2023-07-13T08:09:35;3.33;;;3.03;;
1799;SDS011;919;48.274;12.292;2023-07-13T08:12:02;3.10;;;2.80;;
1799;SDS011;919;48.274;12.292;2023-07-13T08:14:32;5.17;;;3.17;;
1799;SDS011;919;48.274;12.292;2023-07-13T08:16:59;7.33;;;3.13;;
1799;SDS011;919;48.274;12.292;2023-07-13T08:19:26;6.07;;;3.57;;
1799;SDS011;919;48.274;12.292;2023-07-13T08:21:53;4.90;;;3.47;;
1799;SDS011;919;48.274;12.292;2023-07-13T08:24:22;10.50;;;3.80;;
1799;SDS011;919;48.274;12.292;2023-07-13T08:26:50;4.93;;;3.83;;
1799;SDS011;919;48.274;12.292;2023-07-13T08:29:17;4.60;;;3.00;;
1799;SDS011;919;48.274;12.292;2023-07-13T08:31:45;3.87;;;3.47;;
1799;SDS011;919;48.274;12.292;2023-07-13T08:34:12;5.33;;;3.57;;
1799;SDS011;919;48.274;12.292;2023-07-13T08:36:40;4.03;;;2.83;;
1799;SDS011;919;48.274;12.292;2023-07-13T08:39:06;3.83;;;3.10;;
1799;SDS011;919;48.274;12.292;2023-07-13T08:41:33;3.70;;;3.40;;
1799;SDS011;919;48.274;12.292;2023-07-13T08:44:01;5.17;;;4.10;;
1799;SDS011;919;48.274;12.292;2023-07-13T08:46:33;4.20;;;3.20;;
1799;SDS011;919;48.274;12.292;2023-07-13T08:49:05;3.73;;;3.00;;
1799;SDS011;919;48.274;12.292;2023-07-13T08:51:38;5.60;;;3.43;;
1799;SDS011;919;48.274;12.292;2023-07-13T08:54:10;3.63;;;3.33;;
1799;SDS011;919;48.274;12.292;2023-07-13T08:56:43;4.20;;;3.90;;
1799;SDS011;919;48.274;12.292;2023-07-13T08:59:14;4.47;;;3.50;;
1799;SDS011;919;48.274;12.292;2023-07-13T09:01:46;3.40;;;3.10;;
1799;SDS011;919;48.274;12.292;2023-07-13T09:04:22;3.50;;;2.70;;
1799;SDS011;919;48.274;12.292;2023-07-13T09:06:55;2.63;;;2.43;;
1799;SDS011;919;48.274;12.292;2023-07-13T09:09:30;2.50;;;2.30;;
1799;SDS011;919;48.274;12.292;2023-07-13T09:12:09;2.83;;;2.57;;
1799;SDS011;919;48.274;12.292;2023-07-13T09:14:44;2.40;;;2.20;;
1799;SDS011;919;48.274;12.292;2023-07-13T09:17:14;2.70;;;2.17;;
1799;SDS011;919;48.274;12.292;2023-07-13T09:19:46;4.10;;;1.97;;
1799;SDS011;919;48.274;12.292;2023-07-13T09:22:17;3.90;;;2.30;;
1799;SDS011;919;48.274;12.292;2023-07-13T09:24:52;5.23;;;2.07;;
1799;SDS011;919;48.274;12.292;2023-07-13T09:27:26;2.20;;;2.10;;
1799;SDS011;919;48.274;12.292;2023-07-13T09:29:58;3.10;;;2.30;;
1799;SDS011;919;48.274;12.292;2023-07-13T09:32:37;4.43;;;2.47;;
1799;SDS011;919;48.274;12.292;2023-07-13T09:35:09;4.10;;;2.97;;
1799;SDS011;919;48.274;12.292;2023-07-13T09:37:38;4.47;;;2.73;;
1799;SDS011;919;48.274;12.292;2023-07-13T09:40:08;4.50;;;2.70;;
1799;SDS011;919;48.274;12.292;2023-07-13T09:42:43;3.33;;;2.00;;
1799;SDS011;919;48.274;12.292;2023-07-13T09:45:12;2.83;;;2.63;;
1799;SDS011;919;48.274;12.292;2023-07-13T09:47:53;3.10;;;2.63;;
1799;SDS011;919;48.274;12.292;2023-07-13T09:50:32;2.90;;;2.40;;
1799;SDS011;919;48.274;12.292;2023-07-13T09:53:03;3.43;;;2.70;;
1799;SDS011;919;48.274;12.292;2023-07-13T09:55:31;3.83;;;2.83;;
1799;SDS011;919;48.274;12.292;2023-07-13T09:58:03;3.07;;;2.50;;
1799;SDS011;919;48.274;12.292;2023-07-13T10:00:35;4.00;;;2.73;;
1799;SDS011;919;48.274;12.292;2023-07-13T10:03:04;3.30;;;3.00;;
1799;SDS011;919;48.274;12.292;2023-07-13T10:05:44;2.33;;;2.13;;
1799;SDS011;919;48.274;12.292;2023-07-13T10:08:24;2.40;;;2.20;;
1799;SDS011;919;48.274;12.292;2023-07-13T10:10:59;3.50;;;2.47;;
1799;SDS011;919;48.274;12.292;2023-07-13T10:13:29;2.70;;;2.40;;
1799;SDS011;919;48.274;12.292;2023-07-13T10:16:02;4.03;;;2.27;;
1799;SDS011;919;48.274;12.292;2023-07-13T10:18:34;2.30;;;2.10;;
1799;SDS011;919;48.274;12.292;2023-07-13T10:21:14;2.33;;;2.13;;
1799;SDS011;919;48.274;12.292;2023-07-13T10:23:46;3.13;;;2.13;;
1799;SDS011;919;48.274;12.292;2023-07-13T10:26:17;4.10;;;2.70;;
1799;SDS011;919;48.274;12.292;2023-07-13T10:28:50;3.00;;;2.10;;
1799;SDS011;919;48.274;12.292;2023-07-13T10:31:21;2.73;;;2.03;;
1799;SDS011;919;48.274;12.292;2023-07-13T10:33:50;2.10;;;1.90;;
1799;SDS011;919;48.274;12.292;2023-07-13T10:36:20;2.10;;;2.00;;
1799;SDS011;919;48.274;12.292;2023-07-13T10:38:54;3.00;;;2.13;;
1799;SDS011;919;48.274;12.292;2023-07-13T10:41:24;2.40;;;2.20;;
1799;SDS011;919;48.274;12.292;2023-07-13T10:43:54;2.73;;;2.20;;
1799;SDS011;919;48.274;12.292;2023-07-13T10:46:24;1.83;;;1.73;;
1799;SDS011;919;48.274;12.292;2023-07-13T10:48:56;1.73;;;1.63;;
1799;SDS011;919;48.274;12.292;2023-07-13T10:51:27;4.50;;;1.87;;
1799;SDS011;919;48.274;12.292;2023-07-13T10:54:12;1.53;;;1.43;;
1799;SDS011;919;48.274;12.292;2023-07-13T10:56:48;4.93;;;2.20;;
1799;SDS011;919;48.274;12.292;2023-07-13T10:59:17;2.83;;;2.50;;
1799;SDS011;919;48.274;12.292;2023-07-13T11:01:55;3.77;;;2.20;;
1799;SDS011;919;48.274;12.292;2023-07-13T11:04:24;4.13;;;1.50;;
1799;SDS011;919;48.274;12.292;2023-07-13T11:07:09;1.90;;;1.70;;
1799;SDS011;919;48.274;12.292;2023-07-13T11:10:03;2.20;;;2.00;;
1799;SDS011;919;48.274;12.292;2023-07-13T11:12:58;2.20;;;1.73;;
1799;SDS011;919;48.274;12.292;2023-07-13T11:15:39;1.60;;;1.50;;
1799;SDS011;919;48.274;12.292;2023-07-13T11:18:19;3.00;;;1.80;;
1799;SDS011;919;48.274;12.292;2023-07-13T11:20:48;4.87;;;3.80;;
1799;SDS011;919;48.274;12.292;2023-07-13T11:23:27;2.60;;;1.80;;
1799;SDS011;919;48.274;12.292;2023-07-13T11:25:57;3.10;;;1.60;;
1799;SDS011;919;48.274;12.292;2023-07-13T11:28:27;1.80;;;1.20;;
1799;SDS011;919;48.274;12.292;2023-07-13T11:31:03;1.80;;;1.70;;
1799;SDS011;919;48.274;12.292;2023-07-13T11:33:53;2.10;;;1.77;;
1799;SDS011;919;48.274;12.292;2023-07-13T11:36:28;1.87;;;1.77;;
1799;SDS011;919;48.274;12.292;2023-07-13T11:39:11;4.50;;;1.80;;
1799;SDS011;919;48.274;12.292;2023-07-13T11:41:49;2.63;;;1.63;;
1799;SDS011;919;48.274;12.292;2023-07-13T11:44:19;1.60;;;1.50;;
1799;SDS011;919;48.274;12.292;2023-07-13T11:46:49;2.27;;;1.77;;
1799;SDS011;919;48.274;12.292;2023-07-13T11:49:18;2.50;;;1.80;;
1799;SDS011;919;48.274;12.292;2023-07-13T11:51:47;1.53;;;1.43;;
1799;SDS011;919;48.274;12.292;2023-07-13T11:54:23;5.20;;;3.40;;
1799;SDS011;919;48.274;12.292;2023-07-13T11:56:53;4.57;;;2.00;;
1799;SDS011;919;48.274;12.292;2023-07-13T11:59:23;1.63;;;1.53;;
1799;SDS011;919;48.274;12.292;2023-07-13T12:01:51;1.60;;;1.50;;
1799;SDS011;919;48.274;12.292;2023-07-13T12:04:22;2.57;;;2.07;;
1799;SDS011;919;48.274;12.292;2023-07-13T12:06:54;1.83;;;1.73;;
1799;SDS011;919;48.274;12.292;2023-07-13T12:09:26;1.90;;;1.80;;
1799;SDS011;919;48.274;12.292;2023-07-13T12:11:56;2.33;;;2.13;;
1799;SDS011;919;48.274;12.292;2023-07-13T12:14:23;4.20;;;1.80;;
1799;SDS011;919;48.274;12.292;2023-07-13T12:16:52;2.33;;;1.80;;
1799;SDS011;919;48.274;12.292;2023-07-13T12:19:23;3.73;;;2.47;;
1799;SDS011;919;48.274;12.292;2023-07-13T12:21:52;3.10;;;1.87;;
1799;SDS011;919;48.274;12.292;2023-07-13T12:24:22;2.60;;;2.00;;
1799;SDS011;919;48.274;12.292;2023-07-13T12:26:53;4.13;;;2.30;;
1799;SDS011;919;48.274;12.292;2023-07-13T12:29:24;2.80;;;2.00;;
1799;SDS011;919;48.274;12.292;2023-07-13T12:31:51;4.13;;;2.37;;
1799;SDS011;919;48.274;12.292;2023-07-13T12:34:23;3.77;;;2.20;;
1799;SDS011;919;48.274;12.292;2023-07-13T12:36:53;5.13;;;2.50;;
1799;SDS011;919;48.274;12.292;2023-07-13T12:39:22;5.00;;;2.40;;
1799;SDS011;919;48.274;12.292;2023-07-13T12:42:00;7.90;;;3.03;;
1799;SDS011;919;48.274;12.292;2023-07-13T12:44:41;3.03;;;2.10;;
1799;SDS011;919;48.274;12.292;2023-07-13T12:47:09;3.10;;;2.27;;
1799;SDS011;919;48.274;12.292;2023-07-13T12:49:40;3.63;;;1.90;;
1799;SDS011;919;48.274;12.292;2023-07-13T12:52:19;6.07;;;2.00;;
1799;SDS011;919;48.274;12.292;2023-07-13T12:54:56;4.93;;;1.93;;
1799;SDS011;919;48.274;12.292;2023-07-13T12:57:26;2.67;;;2.10;;
1799;SDS011;919;48.274;12.292;2023-07-13T12:59:53;5.00;;;1.70;;
1799;SDS011;919;48.274;12.292;2023-07-13T13:02:25;4.17;;;2.50;;
1799;SDS011;919;48.274;12.292;2023-07-13T13:04:55;4.57;;;2.30;;
1799;SDS011;919;48.274;12.292;2023-07-13T13:07:23;4.60;;;2.60;;
1799;SDS011;919;48.274;12.292;2023-07-13T13:09:51;2.00;;;1.90;;
1799;SDS011;919;48.274;12.292;2023-07-13T13:12:21;4.47;;;2.47;;
1799;SDS011;919;48.274;12.292;2023-07-13T13:14:49;3.23;;;2.20;;
1799;SDS011;919;48.274;12.292;2023-07-13T13:17:18;2.63;;;2.30;;
1799;SDS011;919;48.274;12.292;2023-07-13T13:19:49;2.30;;;2.10;;
1799;SDS011;919;48.274;12.292;2023-07-13T13:22:18;2.70;;;2.50;;
1799;SDS011;919;48.274;12.292;2023-07-13T13:24:45;2.23;;;2.10;;
1799;SDS011;919;48.274;12.292;2023-07-13T13:27:17;2.70;;;2.30;;
1799;SDS011;919;48.274;12.292;2023-07-13T13:29:47;2.27;;;2.17;;
1799;SDS011;919;48.274;12.292;2023-07-13T13:32:16;2.37;;;2.20;;
1799;SDS011;919;48.274;12.292;2023-07-13T13:34:44;2.90;;;2.60;;
1799;SDS011;919;48.274;12.292;2023-07-13T13:37:18;2.90;;;2.60;;
1799;SDS011;919;48.274;12.292;2023-07-13T13:39:46;4.70;;;2.20;;
1799;SDS011;919;48.274;12.292;2023-07-13T13:42:14;2.30;;;2.20;;
1799;SDS011;919;48.274;12.292;2023-07-13T13:44:42;13.73;;;2.70;;
1799;SDS011;919;48.274;12.292;2023-07-13T13:47:20;3.20;;;2.50;;
1799;SDS011;919;48.274;12.292;2023-07-13T13:49:54;3.00;;;2.50;;
1799;SDS011;919;48.274;12.292;2023-07-13T13:52:21;4.13;;;2.17;;
1799;SDS011;919;48.274;12.292;2023-07-13T13:54:48;3.27;;;2.60;;
1799;SDS011;919;48.274;12.292;2023-07-13T13:57:15;3.40;;;2.50;;
1799;SDS011;919;48.274;12.292;2023-07-13T13:59:41;2.17;;;1.97;;
1799;SDS011;919;48.274;12.292;2023-07-13T14:02:15;2.73;;;2.50;;
1799;SDS011;919;48.274;12.292;2023-07-13T14:04:50;3.53;;;2.33;;
1799;SDS011;919;48.274;12.292;2023-07-13T14:07:22;2.40;;;2.20;;
1799;SDS011;919;48.274;12.292;2023-07-13T14:09:51;3.43;;;2.10;;
1799;SDS011;919;48.274;12.292;2023-07-13T14:12:20;4.10;;;1.80;;
1799;SDS011;919;48.274;12.292;2023-07-13T14:14:49;6.93;;;5.10;;
1799;SDS011;919;48.274;12.292;2023-07-13T14:17:22;2.80;;;2.47;;
1799;SDS011;919;48.274;12.292;2023-07-13T14:19:52;2.00;;;1.80;;
1799;SDS011;919;48.274;12.292;2023-07-13T14:22:22;1.90;;;1.80;;
1799;SDS011;919;48.274;12.292;2023-07-13T14:24:51;2.90;;;2.30;;
1799;SDS011;919;48.274;12.292;2023-07-13T14:27:19;1.80;;;1.70;;
1799;SDS011;919;48.274;12.292;2023-07-13T14:29:47;2.80;;;2.00;;
1799;SDS011;919;48.274;12.292;2023-07-13T14:32:14;3.50;;;2.00;;
1799;SDS011;919;48.274;12.292;2023-07-13T14:34:42;2.80;;;2.20;;
1799;SDS011;919;48.274;12.292;2023-07-13T14:37:11;2.07;;;1.87;;
1799;SDS011;919;48.274;12.292;2023-07-13T14:39:41;4.37;;;2.00;;
1799;SDS011;919;48.274;12.292;2023-07-13T14:42:09;3.63;;;2.17;;
1799;SDS011;919;48.274;12.292;2023-07-13T14:44:37;6.03;;;2.60;;
1799;SDS011;919;48.274;12.292;2023-07-13T14:47:05;3.00;;;2.30;;
1799;SDS011;919;48.274;12.292;2023-07-13T14:49:33;1.90;;;1.70;;
1799;SDS011;919;48.274;12.292;2023-07-13T14:52:08;2.27;;;1.90;;
1799;SDS011;919;48.274;12.292;2023-07-13T14:54:37;2.97;;;2.77;;
1799;SDS011;919;48.274;12.292;2023-07-13T14:57:08;2.00;;;1.90;;
1799;SDS011;919;48.274;12.292;2023-07-13T14:59:35;7.50;;;1.90;;
1799;SDS011;919;48.274;12.292;2023-07-13T15:02:02;2.40;;;2.20;;
1799;SDS011;919;48.274;12.292;2023-07-13T15:04:37;4.43;;;2.77;;
1799;SDS011;919;48.274;12.292;2023-07-13T15:07:07;4.90;;;2.20;;
1799;SDS011;919;48.274;12.292;2023-07-13T15:09:37;5.67;;;2.50;;
1799;SDS011;919;48.274;12.292;2023-07-13T15:12:04;5.03;;;2.87;;
1799;SDS011;919;48.274;12.292;2023-07-13T15:14:31;3.43;;;2.50;;
1799;SDS011;919;48.274;12.292;2023-07-13T15:16:58;3.07;;;2.23;;
1799;SDS011;919;48.274;12.292;2023-07-13T15:19:26;1.90;;;1.80;;
1799;SDS011;919;48.274;12.292;2023-07-13T15:21:53;2.33;;;2.13;;
1799;SDS011;919;48.274;12.292;2023-07-13T15:24:23;2.37;;;2.20;;
1799;SDS011;919;48.274;12.292;2023-07-13T15:26:50;2.47;;;1.87;;
1799;SDS011;919;48.274;12.292;2023-07-13T15:29:17;3.33;;;2.23;;